createdAt,value
2022-11-28T00:04:13.820Z,2.21
2022-11-28T00:09:22.186Z,2.20
2022-11-28T00:14:30.042Z,2.19
2022-11-28T00:19:36.146Z,2.16
2022-11-28T00:24:42.905Z,2.13
2022-11-28T00:29:50.811Z,2.13
2022-11-28T00:34:57.325Z,2.16
2022-11-28T00:40:04.788Z,2.15
2022-11-28T00:45:13.218Z,2.13
2022-11-28T00:50:19.717Z,2.11
2022-11-28T00:55:25.963Z,2.08
2022-11-28T01:00:33.647Z,2.08
2022-11-28T01:05:43.911Z,2.06
2022-11-28T01:10:51.670Z,2.05
2022-11-28T01:16:00.842Z,2.02
2022-11-28T01:21:08.299Z,2.00
2022-11-28T01:26:19.314Z,2.00
2022-11-28T01:31:30.572Z,2.02
2022-11-28T01:36:37.397Z,2.03
2022-11-28T01:41:44.631Z,2.02
2022-11-28T01:46:52.784Z,1.99
2022-11-28T01:52:04.772Z,1.99
2022-11-28T01:57:17.022Z,1.97
2022-11-28T02:02:33.992Z,1.94
2022-11-28T02:07:41.362Z,1.95
2022-11-28T02:13:15.272Z,1.97
2022-11-28T02:18:50.308Z,1.96
2022-11-28T02:24:42.666Z,1.96
2022-11-28T02:30:31.029Z,1.97
2022-11-28T02:35:57.846Z,2.01
2022-11-28T02:41:24.710Z,2.01
2022-11-28T02:46:37.322Z,1.99
2022-11-28T02:51:50.823Z,2.01
2022-11-28T02:56:57.793Z,2.00
2022-11-28T03:02:04.968Z,2.00
2022-11-28T03:07:26.315Z,1.97
2022-11-28T03:12:51.989Z,1.96
2022-11-28T03:18:11.566Z,1.95
2022-11-28T03:23:23.146Z,1.96
2022-11-28T03:28:42.037Z,1.94
2022-11-28T03:33:56.332Z,1.83
2022-11-28T03:39:08.342Z,1.81
2022-11-28T03:44:27.476Z,1.81
2022-11-28T03:49:39.403Z,1.81
2022-11-28T03:54:53.995Z,1.83
2022-11-28T04:00:05.170Z,1.81
2022-11-28T04:05:29.313Z,1.66
2022-11-28T04:10:43.416Z,1.68
2022-11-28T04:15:57.664Z,1.68
2022-11-28T04:21:12.429Z,1.68
2022-11-28T04:26:28.843Z,1.57
2022-11-28T04:31:35.781Z,1.51
2022-11-28T04:36:45.150Z,1.47
2022-11-28T04:41:58.412Z,1.56
2022-11-28T04:47:06.120Z,1.59
2022-11-28T04:52:20.439Z,1.60
2022-11-28T04:57:35.062Z,1.59
2022-11-28T05:02:43.429Z,1.54
2022-11-28T05:07:49.867Z,1.55
2022-11-28T05:12:57.414Z,1.54
2022-11-28T05:18:03.516Z,1.54
2022-11-28T05:23:10.314Z,1.48
2022-11-28T05:28:18.142Z,1.52
2022-11-28T05:33:24.779Z,1.56
2022-11-28T05:38:31.070Z,1.55
2022-11-28T05:43:38.864Z,1.52
2022-11-28T05:48:45.767Z,1.44
2022-11-28T05:53:52.264Z,1.43
2022-11-28T05:59:00.031Z,1.50
2022-11-28T06:04:06.428Z,1.56
2022-11-28T06:09:13.102Z,1.55
2022-11-28T06:14:20.766Z,1.51
2022-11-28T06:19:27.255Z,1.53
2022-11-28T06:24:33.870Z,1.54
2022-11-28T06:29:41.885Z,1.50
2022-11-28T06:34:48.356Z,1.48
2022-11-28T06:39:54.766Z,1.55
2022-11-28T06:45:02.640Z,1.54
2022-11-28T06:50:11.938Z,1.55
2022-11-28T06:55:19.137Z,1.55
2022-11-28T07:00:27.796Z,1.54
2022-11-28T07:05:33.984Z,1.54
2022-11-28T07:10:40.183Z,1.55
2022-11-28T07:15:52.684Z,1.60
2022-11-28T07:20:58.742Z,1.60
2022-11-28T07:26:06.763Z,1.65
2022-11-28T07:31:17.677Z,1.68
2022-11-28T07:36:27.933Z,1.72
2022-11-28T07:41:34.909Z,1.82
2022-11-28T07:46:43.059Z,1.80
2022-11-28T07:51:49.513Z,1.82
2022-11-28T07:57:12.716Z,1.82
2022-11-28T08:02:20.991Z,1.85
2022-11-28T08:07:29.351Z,1.89
2022-11-28T08:12:35.606Z,1.92
2022-11-28T08:17:43.351Z,1.95
2022-11-28T08:22:49.687Z,1.94
2022-11-28T08:27:55.999Z,1.99
2022-11-28T08:33:04.376Z,2.01
2022-11-28T08:38:10.653Z,2.07
2022-11-28T08:43:17.234Z,2.12
2022-11-28T08:48:25.847Z,2.12
2022-11-28T08:53:32.653Z,2.10
2022-11-28T08:58:39.196Z,2.15
2022-11-28T09:03:47.586Z,2.17
2022-11-28T09:08:54.628Z,2.22
2022-11-28T09:14:02.462Z,2.27
2022-11-28T09:19:11.131Z,2.30
2022-11-28T09:24:17.369Z,2.27
2022-11-28T09:29:23.704Z,2.34
2022-11-28T09:34:31.571Z,2.37
2022-11-28T09:39:57.022Z,2.37
2022-11-28T09:45:08.410Z,2.46
2022-11-28T09:50:21.281Z,2.52
2022-11-28T09:55:36.777Z,2.52
2022-11-28T10:00:57.827Z,2.54
2022-11-28T10:06:19.199Z,2.62
2022-11-28T10:11:41.239Z,2.70
2022-11-28T10:16:58.308Z,2.74
2022-11-28T10:22:13.793Z,2.83
2022-11-28T10:27:26.621Z,2.90
2022-11-28T10:32:38.009Z,2.88
2022-11-28T10:37:46.937Z,2.93
2022-11-28T10:43:02.842Z,2.96
2022-11-28T10:48:40.057Z,3.02
2022-11-28T10:54:01.158Z,3.10
2022-11-28T10:59:18.965Z,3.10
2022-11-28T11:04:28.788Z,3.09
2022-11-28T11:09:36.474Z,3.11
2022-11-28T11:14:43.437Z,3.09
2022-11-28T11:19:50.150Z,3.15
2022-11-28T11:25:15.700Z,3.19
2022-11-28T11:30:29.242Z,3.25
2022-11-28T11:35:44.262Z,3.28
2022-11-28T11:40:53.388Z,3.28
2022-11-28T11:46:11.613Z,3.33
2022-11-28T11:51:27.583Z,3.38
2022-11-28T11:56:39.958Z,3.41
2022-11-28T12:01:48.503Z,3.48
2022-11-28T12:06:57.022Z,3.43
2022-11-28T12:12:15.629Z,3.43
2022-11-28T12:17:51.435Z,3.44
2022-11-28T12:23:16.994Z,3.44
2022-11-28T12:28:42.719Z,3.44
2022-11-28T12:34:03.358Z,3.40
2022-11-28T12:39:25.495Z,3.40
2022-11-28T12:45:06.010Z,3.40
2022-11-28T12:50:31.663Z,3.32
2022-11-28T12:55:50.118Z,3.30
2022-11-28T13:01:17.319Z,3.26
2022-11-28T13:06:33.961Z,3.13
2022-11-28T13:12:00.564Z,3.15
2022-11-28T13:17:21.387Z,3.08
2022-11-28T13:22:36.953Z,3.01
2022-11-28T13:27:53.559Z,3.00
2022-11-28T13:33:06.922Z,2.92
2022-11-28T13:38:45.143Z,2.95
2022-11-28T13:43:56.003Z,2.87
2022-11-28T13:49:15.395Z,2.83
2022-11-28T13:54:46.135Z,2.82
2022-11-28T14:00:04.882Z,2.82
2022-11-28T14:05:32.333Z,2.82
2022-11-28T14:11:27.418Z,2.80
2022-11-28T14:16:57.720Z,2.79
2022-11-28T14:22:22.179Z,2.72
2022-11-28T14:27:33.738Z,2.70
2022-11-28T14:32:44.282Z,2.64
2022-11-28T14:37:55.770Z,2.66
2022-11-28T14:43:26.900Z,2.69
2022-11-28T14:48:33.544Z,2.61
2022-11-28T14:53:47.037Z,2.60
2022-11-28T14:59:02.288Z,2.60
2022-11-28T15:04:33.067Z,2.54
2022-11-28T15:09:48.022Z,2.52
2022-11-28T15:14:58.605Z,2.52
2022-11-28T15:20:10.735Z,2.51
2022-11-28T15:25:25.390Z,2.46
2022-11-28T15:30:33.087Z,2.44
2022-11-28T15:35:40.384Z,2.45
2022-11-28T15:40:53.365Z,2.43
2022-11-28T15:46:03.396Z,2.42
2022-11-28T15:51:29.728Z,2.38
2022-11-28T15:56:39.062Z,2.38
2022-11-28T16:01:45.762Z,2.34
2022-11-28T16:06:57.859Z,2.34
2022-11-28T16:12:14.131Z,2.34
2022-11-28T16:17:25.552Z,2.34
2022-11-28T16:22:38.777Z,2.33
2022-11-28T16:27:49.495Z,2.32
2022-11-28T16:32:58.223Z,2.30
2022-11-28T16:38:17.136Z,2.31
2022-11-28T16:43:33.118Z,2.31
2022-11-28T16:48:48.935Z,2.29
2022-11-28T16:53:57.011Z,2.26
2022-11-28T16:59:13.196Z,2.27
2022-11-28T17:04:24.648Z,2.20
2022-11-28T17:09:32.144Z,2.16
2022-11-28T17:14:41.103Z,2.11
2022-11-28T17:19:48.799Z,2.11
2022-11-28T17:25:02.045Z,2.16
2022-11-28T17:30:16.382Z,2.12
2022-11-28T17:35:26.500Z,2.08
2022-11-28T17:40:37.244Z,2.10
2022-11-28T17:45:51.041Z,2.04
2022-11-28T17:50:58.295Z,2.05
2022-11-28T17:56:06.927Z,2.05
2022-11-28T18:01:20.602Z,2.00
2022-11-28T18:06:29.348Z,2.00
2022-11-28T18:11:37.720Z,1.94
2022-11-28T18:16:48.126Z,1.90
2022-11-28T18:21:56.643Z,1.89
2022-11-28T18:27:05.402Z,1.93
2022-11-28T18:32:13.632Z,1.86
2022-11-28T18:37:20.981Z,1.85
2022-11-28T18:42:29.699Z,1.79
2022-11-28T18:47:39.355Z,1.80
2022-11-28T18:52:47.965Z,1.83
2022-11-28T18:57:56.376Z,1.85
2022-11-28T19:03:05.978Z,1.80
2022-11-28T19:08:13.301Z,1.83
2022-11-28T19:13:21.864Z,1.88
2022-11-28T19:18:30.042Z,1.87
2022-11-28T19:23:42.131Z,1.87
2022-11-28T19:28:56.319Z,1.90
2022-11-28T19:34:10.732Z,1.88
2022-11-28T19:39:23.002Z,1.92
2022-11-28T19:44:31.492Z,1.88
2022-11-28T19:49:40.914Z,1.87
2022-11-28T19:54:48.410Z,1.86
2022-11-28T19:59:57.095Z,1.79
2022-11-28T20:05:05.851Z,1.76
2022-11-28T20:10:15.158Z,1.65
2022-11-28T20:15:22.989Z,1.68
2022-11-28T20:20:31.900Z,1.68
2022-11-28T20:25:39.447Z,1.59
2022-11-28T20:30:46.514Z,1.51
2022-11-28T20:36:05.963Z,1.55
2022-11-28T20:41:20.733Z,1.56
2022-11-28T20:46:31.389Z,1.50
2022-11-28T20:51:40.897Z,1.46
2022-11-28T21:02:17.232Z,1.41
2022-11-28T21:07:28.300Z,1.33
2022-11-28T21:12:37.740Z,1.36
2022-11-28T21:17:45.400Z,1.36
2022-11-28T21:22:53.210Z,1.29
2022-11-28T21:28:00.085Z,1.27
2022-11-28T21:33:06.451Z,1.31
2022-11-28T21:38:14.267Z,1.28
2022-11-28T21:43:21.000Z,1.26
2022-11-28T21:48:27.730Z,1.21
2022-11-28T21:53:36.696Z,1.19
2022-11-28T21:58:43.177Z,1.11
2022-11-28T22:03:49.750Z,1.11
2022-11-28T22:08:58.676Z,1.05
2022-11-28T22:14:05.127Z,1.01
2022-11-28T22:19:12.093Z,1.01
2022-11-28T22:24:20.164Z,1.00
2022-11-28T22:29:27.986Z,1.01
2022-11-28T22:34:39.538Z,1.01
2022-11-28T22:39:48.362Z,0.96
2022-11-28T22:44:54.871Z,0.95
2022-11-28T22:50:02.300Z,1.01
2022-11-28T22:55:11.589Z,1.00
2022-11-28T23:00:21.296Z,1.01
2022-11-28T23:05:28.273Z,1.00
2022-11-28T23:10:39.401Z,1.03
2022-11-28T23:15:52.504Z,1.05
2022-11-28T23:20:59.411Z,1.01
2022-11-28T23:26:08.677Z,0.99
2022-11-28T23:31:17.199Z,1.02
2022-11-28T23:36:26.516Z,1.01
2022-11-28T23:41:34.739Z,1.00
2022-11-28T23:46:42.106Z,0.98
2022-11-28T23:51:48.417Z,1.00
2022-11-28T23:56:56.267Z,1.00
